Flight Track Log - Related Links

Times and Time Zones

All times are in EST time to prevent confusion due to time zone crossing. See the AMF1026 flight status page for this flight to view local times or setup timezone preferences in your user account.

Time Position Orientation Groundspeed Altitude Reporting Facility
EST Latitude Longitude Course Direction KTS MPH feet Rate Location/Type
Tue 08:45:39 PM 42.7483 -73.8197 247° West 141 162 1,300  Level Boston Center
Tue 08:46:41 PM 42.7514 -73.8753 274° West 140 161 4,400 2,537 Climbing Boston Center
Tue 08:47:42 PM 42.7419 -73.9336 258° West 158 182 6,500 2,146 Climbing Boston Center
Tue 08:48:44 PM 42.7394 -73.9944 267° West 159 183 8,800 1,721 Climbing Boston Center
Tue 08:49:44 PM 42.7419 -74.0581 273° West 157 181 10,000 650 Climbing Boston Center
Tue 08:50:44 PM 42.7344 -74.1294 262° West 192 221 10,100  Climbing Boston Center
Tue 08:51:00 PM 42.6356 -74.2093 247° West  Level Estimated
Tue 08:51:44 PM 42.7150 -74.1994 249° West 196 226 10,000  Level Boston Center
Tue 08:52:43 PM 42.7011 -74.2717 255° West 198 228 10,000  Level Boston Center
Tue 08:53:44 PM 42.6836 -74.3456 252° West 203 234 10,000  Level Boston Center
Tue 08:54:46 PM 42.6558 -74.4142 241° Southwest 207 238 10,000 -50 Level Boston Center
Tue 08:55:45 PM 42.6433 -74.4894 257° West 203 234 9,900  Descending Boston Center
Tue 08:56:46 PM 42.6331 -74.5650 260° West 204 235 10,000 49 Climbing Boston Center
Tue 08:57:47 PM 42.6117 -74.6381 248° West 209 241 10,000  Level Boston Center
Tue 08:58:48 PM 42.5853 -74.7075 243° Southwest 207 238 10,000  Level Boston Center
Tue 08:59:50 PM 42.5611 -74.7836 247° West 204 235 10,000 49 Level Boston Center
Tue 09:00:50 PM 42.5475 -74.8525 255° West 211 243 10,100 50 Climbing Boston Center
Tue 09:01:49 PM 42.5267 -74.9233 248° West 207 238 10,100  Level Boston Center
Tue 09:02:50 PM 42.5022 -74.9933 245° Southwest 206 237 10,100  Level Boston Center
Tue 09:03:51 PM 42.4789 -75.0653 246° West 207 238 10,100  Level Boston Center
Tue 09:04:51 PM 42.4558 -75.1375 247° West 208 239 10,100  Level Boston Center
Tue 09:05:52 PM 42.4336 -75.2103 248° West 207 238 10,100  Level Boston Center
Tue 09:06:52 PM 42.4106 -75.2825 247° West 208 239 10,100  Level Boston Center
Tue 09:07:53 PM 42.3886 -75.3553 248° West 208 239 10,100 -49 Level Boston Center
Tue 09:08:54 PM 42.3683 -75.4289 250° West 208 239 10,000 -50 Descending Boston Center
Tue 09:09:54 PM 42.3500 -75.5031 252° West 208 239 10,000  Level Boston Center
Tue 09:10:53 PM 42.3297 -75.5761 249° West 207 238 10,000 50 Level Boston Center
Tue 09:11:55 PM 42.3097 -75.6492 250° West 208 239 10,100  Climbing Boston Center
Tue 09:12:53 PM 42.2842 -75.7258 246° West 209 241 10,000  Descending Boston Center
Tue 09:13:56 PM 42.2603 -75.7978 246° West 211 243 10,100 48 Climbing Boston Center
Tue 09:14:57 PM 42.2375 -75.8708 247° West 212 244 10,100 -50 Level Boston Center
Tue 09:15:56 PM 42.2164 -75.9417 248° West 206 237 10,000  Descending Boston Center
Tue 09:16:57 PM 42.1942 -76.0108 247° West 203 234 10,100  Climbing Boston Center
Tue 09:17:59 PM 42.1722 -76.0828 248° West 207 238 10,000 -57 Descending Boston Center
Tue 09:18:42 PM 42.1539 -76.1417 247° West 208 239 10,000 58 Level New York Center
Tue 09:19:42 PM 42.1297 -76.2122 245° Southwest 208 239 10,100  Climbing New York Center
Tue 09:20:42 PM 42.1056 -76.2831 245° Southwest 208 239 10,000  Descending New York Center
Tue 09:21:42 PM 42.0858 -76.3542 250° West 208 239 10,100 50 Climbing New York Center
Tue 09:22:42 PM 42.0617 -76.4247 245° Southwest 208 239 10,100  Level New York Center
Tue 09:23:42 PM 42.0353 -76.4950 243° Southwest 208 239 10,100  Level New York Center
Tue 09:24:42 PM 42.0089 -76.5653 243° Southwest 208 239 10,100  Level New York Center
Tue 09:27:03 PM 41.9539 -76.7281 246° West 208 239 10,100 -30 Level Boston Center
Tue 09:28:02 PM 41.9289 -76.7939 243° Southwest 201 231 10,000 -50 Descending Boston Center
Tue 09:29:02 PM 41.9042 -76.8631 244° Southwest 207 238 10,000  Level Boston Center
Tue 09:30:05 PM 41.8842 -76.9264 247° West 202 232 10,000  Level Boston Center
Tue 09:31:01 PM 41.8581 -76.9944 243° Southwest 203 234 10,000  Level Cleveland Center
Tue 09:32:02 PM 41.8347 -77.0608 245° Southwest 199 229 10,000  Level Cleveland Center
Tue 09:33:03 PM 41.8114 -77.1286 245° Southwest 199 229 10,000  Level Cleveland Center
Tue 09:34:03 PM 41.7822 -77.2106 245° Southwest 203 234 10,000  Level Cleveland Center
Tue 09:35:04 PM 41.7603 -77.2783 247° West 200 230 10,000  Level Cleveland Center
Tue 09:36:05 PM 41.7381 -77.3461 246° West 199 229 10,000  Level Cleveland Center
Tue 09:37:06 PM 41.7175 -77.4158 248° West 201 231 10,000  Level Cleveland Center
Tue 09:38:06 PM 41.6928 -77.4822 244° Southwest 201 231 10,000  Level Cleveland Center
Tue 09:39:07 PM 41.6686 -77.5414 241° Southwest 201 231 10,000  Level Cleveland Center
Tue 09:40:08 PM 41.6425 -77.6075 242° Southwest 203 234 10,000  Level Cleveland Center
Tue 09:41:08 PM 41.6153 -77.6731 241° Southwest 201 231 10,000  Level Cleveland Center
Tue 09:42:09 PM 41.5842 -77.7517 242° Southwest 201 231 10,000  Level Cleveland Center
Tue 09:43:10 PM 41.5589 -77.8178 243° Southwest 200 230 10,000  Level Cleveland Center
Tue 09:44:11 PM 41.5369 -77.8850 246° West 199 229 10,000  Level Cleveland Center
Tue 09:45:11 PM 41.5158 -77.9542 248° West 201 231 10,000  Level Cleveland Center
Tue 09:46:12 PM 41.4950 -78.0211 247° West 197 227 10,000  Level Cleveland Center
Tue 09:47:13 PM 41.4753 -78.0906 249° West 200 230 10,000  Level Cleveland Center
Tue 09:48:13 PM 41.4564 -78.1567 249° West 194 223 10,000  Level Cleveland Center
Tue 09:49:14 PM 41.4364 -78.2225 248° West 192 221 10,000  Level Cleveland Center
Tue 09:50:15 PM 41.4158 -78.2897 248° West 197 227 10,000  Level Cleveland Center
Tue 09:51:16 PM 41.3953 -78.3561 248° West 195 224 10,000  Level Cleveland Center
Tue 09:52:16 PM 41.3756 -78.4272 250° West 195 224 10,000  Level Cleveland Center
Tue 09:53:17 PM 41.3558 -78.4958 249° West 199 229 10,000  Level Cleveland Center
Tue 09:54:18 PM 41.3364 -78.5625 249° West 196 226 10,000  Level Cleveland Center
Tue 09:55:18 PM 41.3144 -78.6275 246° West 195 224 10,000  Level Cleveland Center
Tue 09:56:19 PM 41.2925 -78.6947 247° West 199 229 10,000  Level Cleveland Center
Tue 09:57:20 PM 41.2736 -78.7672 251° West 208 239 10,000  Level Cleveland Center
Tue 09:58:20 PM 41.2494 -78.8306 243° Southwest 199 229 10,000  Level Cleveland Center
Tue 09:59:21 PM 41.2311 -78.8978 250° West 195 224 10,000  Level Cleveland Center
Tue 10:00:22 PM 41.2106 -78.9725 250° West 199 229 10,000  Level Cleveland Center
Tue 10:01:22 PM 41.1919 -79.0403 250° West 197 227 10,000  Level Cleveland Center
Tue 10:02:23 PM 41.1706 -79.1083 247° West 200 230 10,000  Level Cleveland Center
Tue 10:03:24 PM 41.1486 -79.1756 247° West 200 230 10,000  Level Cleveland Center
Tue 10:04:24 PM 41.1261 -79.2436 246° West 202 232 10,000 50 Level Cleveland Center
Tue 10:05:25 PM 41.1031 -79.3211 248° West 203 234 10,100 49 Climbing Cleveland Center
Tue 10:06:26 PM 41.0769 -79.3864 242° Southwest 202 232 10,100  Level Cleveland Center
Tue 10:07:26 PM 41.0500 -79.4514 241° Southwest 202 232 10,100  Level Cleveland Center
Tue 10:08:27 PM 41.0206 -79.5172 239° Southwest 208 239 10,100  Level Cleveland Center
Tue 10:09:28 PM 40.9925 -79.5811 240° Southwest 204 235 10,100 -50 Level Cleveland Center
Tue 10:10:28 PM 40.9639 -79.6472 240° Southwest 207 238 10,000 -50 Descending Cleveland Center
Tue 10:11:29 PM 40.9342 -79.7117 239° Southwest 206 237 10,000  Level Cleveland Center
Tue 10:12:29 PM 40.9061 -79.7786 241° Southwest 206 237 10,000  Level Cleveland Center
Tue 10:13:30 PM 40.8756 -79.8433 238° Southwest 208 239 10,000  Level Cleveland Center
Tue 10:14:31 PM 40.8458 -79.9083 239° Southwest 211 243 10,000  Level Cleveland Center
Tue 10:15:31 PM 40.8156 -79.9706 237° Southwest 205 236 10,000  Level Cleveland Center
Tue 10:16:32 PM 40.7833 -80.0369 237° Southwest 204 235 10,000  Level Cleveland Center
Tue 10:17:32 PM 40.7544 -80.1011 239° Southwest 205 236 10,000  Level Cleveland Center
Tue 10:18:33 PM 40.7258 -80.1653 240° Southwest 203 234 10,000  Level Cleveland Center
Tue 10:19:34 PM 40.6967 -80.2289 239° Southwest 203 234 10,000  Level Cleveland Center
Tue 10:20:34 PM 40.6714 -80.2936 243° Southwest 199 229 10,000  Level Cleveland Center
Tue 10:21:35 PM 40.6422 -80.3664 242° Southwest 215 247 10,000  Level Cleveland Center
Tue 10:22:35 PM 40.6144 -80.4317 241° Southwest 204 235 10,000  Level Cleveland Center
Tue 10:23:36 PM 40.5847 -80.4925 237° Southwest 203 234 10,000  Level Cleveland Center
Tue 10:24:36 PM 40.5583 -80.5575 242° Southwest 203 234 10,000  Level Cleveland Center
Tue 10:25:37 PM 40.5308 -80.6208 240° Southwest 202 232 10,000  Level Cleveland Center
Tue 10:26:37 PM 40.5033 -80.6844 240° Southwest 203 234 10,000  Level Cleveland Center
Tue 10:27:38 PM 40.4769 -80.7494 242° Southwest 202 232 10,000  Level Cleveland Center
Tue 10:28:39 PM 40.4497 -80.8142 241° Southwest 203 234 10,000  Level Cleveland Center
Tue 10:29:39 PM 40.4222 -80.8781 241° Southwest 203 234 10,000  Level Cleveland Center
Tue 10:30:40 PM 40.3925 -80.9414 238° Southwest 205 236 10,000  Level Cleveland Center
Tue 10:31:40 PM 40.3614 -81.0058 238° Southwest 209 241 10,000  Level Cleveland Center
Tue 10:32:41 PM 40.3311 -81.0703 238° Southwest 210 242 10,000  Level Cleveland Center
Tue 10:33:41 PM 40.3017 -81.1347 239° Southwest 208 239 10,000  Level Cleveland Center
Tue 10:34:12 PM 40.2811 -81.1811 240° Southwest 208 239 10,000  Level Indianapolis Center
Tue 10:35:13 PM 40.2508 -81.2464 239° Southwest 208 239 10,000  Level Indianapolis Center
Tue 10:36:13 PM 40.2192 -81.3092 237° Southwest 207 238 10,000  Level Indianapolis Center
Tue 10:37:14 PM 40.1875 -81.3742 237° Southwest 210 242 10,000  Level Indianapolis Center
Tue 10:38:14 PM 40.1550 -81.4392 237° Southwest 212 244 10,000  Level Indianapolis Center
Tue 10:39:15 PM 40.1247 -81.5044 239° Southwest 210 242 10,000  Level Indianapolis Center
Tue 10:40:16 PM 40.0931 -81.5694 238° Southwest 211 243 10,000  Level Indianapolis Center
Tue 10:41:16 PM 40.0625 -81.6339 238° Southwest 208 239 10,000  Level Indianapolis Center
Tue 10:42:17 PM 40.0322 -81.6986 239° Southwest 207 238 10,000  Level Indianapolis Center
Tue 10:43:18 PM 40.0017 -81.7644 239° Southwest 209 241 10,000  Level Indianapolis Center
Tue 10:44:18 PM 39.9747 -81.8231 239° Southwest 206 237 10,000  Level Indianapolis Center
Tue 10:45:19 PM 39.9456 -81.8881 240° Southwest 208 239 10,000  Level Indianapolis Center
Tue 10:46:06 PM 39.9314 -81.9525 254° West 204 235 10,000  Level Indianapolis Center
Tue 10:46:19 PM 39.9292 -81.9589 246° West 204 235 10,000  Level Indianapolis Center
Tue 10:47:20 PM 39.9092 -82.0289 250° West 206 237 10,000  Level Indianapolis Center
Tue 10:47:25 PM 39.9067 -82.0414 255° West 205 236 10,000  Level Indianapolis Center
Tue 10:48:21 PM 39.8906 -82.0983 250° West 205 236 10,000  Level Indianapolis Center
Tue 10:48:26 PM 39.8881 -82.1122 257° West 204 235 10,000  Level Indianapolis Center
Tue 10:49:26 PM 39.8694 -82.1803 250° West 204 235 10,000  Level Indianapolis Center
Tue 10:50:22 PM 39.8547 -82.2381 252° West 204 235 10,000  Level Indianapolis Center
Tue 10:50:27 PM 39.8506 -82.2511 247° West 204 235 10,000  Level Indianapolis Center
Tue 10:51:23 PM 39.8361 -82.3078 252° West 204 235 10,000  Level Indianapolis Center
Tue 10:51:27 PM 39.8311 -82.3269 251° West 204 235 10,000  Level Indianapolis Center
Tue 10:52:22 PM 39.8156 -82.3844 251° West 205 236 10,000  Level Indianapolis Center
Tue 10:52:23 PM 39.8178 -82.3775 67° East 204 235 10,000  Level Indianapolis Center
Tue 10:53:23 PM 39.7983 -82.4581 253° West 207 238 10,000  Level Indianapolis Center
Tue 10:53:24 PM 39.8000 -82.4483 77° East 206 237 10,000  Level Indianapolis Center
Tue 10:54:23 PM 39.7769 -82.5311 250° West 207 238 10,000  Level Indianapolis Center
Tue 10:54:24 PM 39.7800 -82.5186 72° East 208 239 10,000  Level Indianapolis Center
Tue 10:55:24 PM 39.7558 -82.6014 249° West 208 239 10,000  Level Indianapolis Center
Tue 10:55:25 PM 39.7561 -82.6036 279° West 209 241 10,000  Level Indianapolis Center
Tue 10:56:24 PM 39.7347 -82.6714 248° West 209 241 10,000  Level Indianapolis Center
Tue 10:56:26 PM 39.7350 -82.6731 282° West 207 238 10,000  Level Indianapolis Center
Tue 10:57:25 PM 39.7156 -82.7419 250° West 208 239 10,000  Level Indianapolis Center
Tue 10:57:26 PM 39.7158 -82.7442 279° West 209 241 10,000  Level Indianapolis Center
Tue 10:58:26 PM 39.6981 -82.8153 252° West 208 239 10,000  Level Indianapolis Center
Tue 10:58:27 PM 39.6978 -82.8150 142° Southeast 209 241 10,000  Level Indianapolis Center
Tue 10:59:26 PM 39.6789 -82.8856 251° West 208 239 10,000  Level Indianapolis Center
Tue 10:59:28 PM 39.6783 -82.8858 201° Southwest 208 239 10,000  Level Indianapolis Center
Tue 11:00:28 PM 39.6572 -82.9558 249° West 209 241 10,000  Level Indianapolis Center
Tue 11:01:29 PM 39.6372 -83.0275 250° West 209 241 10,000  Level Indianapolis Center
Tue 11:02:22 PM 39.6214 -83.0911 252° West 208 239 10,000  Level Indianapolis Center
Tue 11:02:30 PM 39.6189 -83.0983 246° West 208 239 10,000  Level Indianapolis Center
Tue 11:03:23 PM 39.5994 -83.1636 249° West 210 242 10,000  Level Indianapolis Center
Tue 11:03:31 PM 39.5989 -83.1700 264° West 210 242 10,000  Level Indianapolis Center
Tue 11:04:23 PM 39.5819 -83.2369 252° West 211 243 10,000  Level Indianapolis Center
Tue 11:04:31 PM 39.5797 -83.2417 239° Southwest 210 242 10,000  Level Indianapolis Center
Tue 11:05:32 PM 39.5608 -83.3142 251° West 211 243 10,000  Level Indianapolis Center
Tue 11:06:24 PM 39.5444 -83.3828 253° West 212 244 10,000  Level Indianapolis Center
Tue 11:06:33 PM 39.5422 -83.3864 231° Southwest 211 243 10,000  Level Indianapolis Center
Tue 11:07:25 PM 39.5242 -83.4581 252° West 213 245 10,000  Level Indianapolis Center
Tue 11:07:33 PM 39.5236 -83.4594 243° Southwest 212 244 10,000  Level Indianapolis Center
Tue 11:08:26 PM 39.5064 -83.5311 253° West 214 246 10,000  Level Indianapolis Center
Tue 11:08:34 PM 39.5044 -83.5319 198° South 212 244 10,000  Level Indianapolis Center
Tue 11:09:26 PM 39.4864 -83.6039 252° West 217 250 10,000  Level Indianapolis Center
Tue 11:09:35 PM 39.4861 -83.6058 260° West 213 245 10,000  Level Indianapolis Center
Tue 11:10:27 PM 39.4683 -83.6794 253° West 216 249 10,000  Level Indianapolis Center
Tue 11:10:35 PM 39.4686 -83.6806 288° West 215 247 10,000  Level Indianapolis Center
Tue 11:11:27 PM 39.4461 -83.7517 248° West 220 253 10,000  Level Indianapolis Center
Tue 11:11:36 PM 39.4461 -83.7531 270° West 216 249 10,000  Level Indianapolis Center
Tue 11:12:37 PM 39.4181 -83.8250 243° Southwest 222 255 10,000  Level Indianapolis Center
Tue 11:13:37 PM 39.3850 -83.8936 238° Southwest 226 260 10,000  Level Indianapolis Center
Tue 11:14:38 PM 39.3542 -83.9628 240° Southwest 223 257 10,000  Level Indianapolis Center
Tue 11:15:39 PM 39.3247 -84.0308 241° Southwest 218 251 10,000  Level Indianapolis Center
Tue 11:16:39 PM 39.2944 -84.0983 240° Southwest 217 250 10,000 -545 Level Indianapolis Center
Tue 11:17:40 PM 39.2658 -84.1633 240° Southwest 211 243 8,900 -1,279 Descending Indianapolis Center
Tue 11:18:41 PM 39.2386 -84.2239 240° Southwest 199 229 7,400 -1,426 Descending Indianapolis Center
Tue 11:19:42 PM 39.2047 -84.2939 238° Southwest 195 224 6,000 -694 Descending Indianapolis Center
Tue 11:20:42 PM 39.1792 -84.3483 239° Southwest 187 215 6,000 -50 Level Indianapolis Center
Tue 11:21:43 PM 39.1475 -84.3950 229° Southwest 177 204 5,900 -492 Descending Indianapolis Center
Tue 11:22:44 PM 39.1153 -84.4417 228° Southwest 176 203 5,000 -492 Descending Indianapolis Center
Tue 11:23:45 PM 39.0850 -84.4847 228° Southwest 170 196 4,900 -99 Descending Indianapolis Center
Tue 11:24:45 PM 39.0564 -84.5206 224° Southwest 156 180 4,800 -347 Descending Indianapolis Center
Tue 11:25:46 PM 39.0181 -84.5483 209° Southwest 149 171 4,200 -443 Descending Indianapolis Center
Tue 11:26:47 PM 38.9886 -84.5672 207° Southwest 146 168 3,900 -920 Descending Indianapolis Center
Tue 11:28:16 PM 39.0000 -84.6333 283° West 109 125 1,900 -1,348 Descending Cincinnati TRACON
Tue 11:30:00 PM 39.0333 -84.6667 247° West  Level FlightAware Approximate
Tue 11:37:00 PM 39.0488 -84.6678 247° West  Level Estimated

Login

Don't have an account? Register now (free) for customized features, flight alerts, and more!